createdAt,value
2022-08-05T00:00:00.317Z,3.13
2022-08-05T00:02:07.662Z,3.37
2022-08-05T00:04:10.854Z,3.00
2022-08-05T00:06:27.809Z,3.97
2022-08-05T00:08:36.318Z,6.17
2022-08-05T00:10:39.233Z,2.93
2022-08-05T00:12:55.671Z,4.90
2022-08-05T00:15:53.915Z,3.27
2022-08-05T00:17:24.001Z,2.60
2022-08-05T00:19:33.460Z,3.37
2022-08-05T00:21:36.861Z,3.00
2022-08-05T00:23:45.798Z,3.47
2022-08-05T00:25:49.794Z,3.47
2022-08-05T00:27:56.769Z,3.43
2022-08-05T00:30:03.165Z,3.43
2022-08-05T00:32:12.597Z,2.73
2022-08-05T00:34:56.798Z,2.70
2022-08-05T00:37:10.726Z,3.13
2022-08-05T00:39:03.901Z,2.93
2022-08-05T00:41:11.628Z,3.87
2022-08-05T00:43:15.339Z,3.90
2022-08-05T00:45:28.210Z,3.10
2022-08-05T00:47:56.817Z,3.00
2022-08-05T00:50:00.460Z,3.40
2022-08-05T00:52:03.276Z,4.60
2022-08-05T00:54:06.306Z,3.20
2022-08-05T00:56:09.457Z,3.00
2022-08-05T00:58:13.284Z,5.77
2022-08-05T01:00:16.931Z,4.37
2022-08-05T01:02:21.289Z,3.47
2022-08-05T01:04:30.212Z,3.50
2022-08-05T01:06:33.009Z,3.30
2022-08-05T01:08:43.081Z,3.80
2022-08-05T01:10:52.850Z,2.90
2022-08-05T01:13:05.389Z,2.77
2022-08-05T01:15:35.816Z,2.90
2022-08-05T01:17:46.669Z,3.97
2022-08-05T01:20:12.289Z,3.37
2022-08-05T01:22:28.905Z,4.47
2022-08-05T01:24:49.372Z,3.23
2022-08-05T01:27:19.060Z,3.40
2022-08-05T01:29:29.039Z,3.00
2022-08-05T01:31:42.745Z,3.97
2022-08-05T01:33:53.608Z,2.93
2022-08-05T01:36:00.217Z,3.37
2022-08-05T01:38:06.937Z,3.07
2022-08-05T01:40:12.386Z,4.53
2022-08-05T01:42:18.518Z,3.13
2022-08-05T01:44:24.757Z,4.00
2022-08-05T01:46:42.962Z,3.63
2022-08-05T01:48:51.202Z,7.50
2022-08-05T01:50:56.369Z,3.20
2022-08-05T01:53:02.711Z,4.00
2022-08-05T01:55:10.449Z,2.90
2022-08-05T01:58:11.162Z,3.20
2022-08-05T01:59:41.540Z,2.90
2022-08-05T02:01:54.799Z,3.10
2022-08-05T02:03:59.770Z,4.23
2022-08-05T02:06:33.576Z,3.37
2022-08-05T02:08:31.147Z,3.30
2022-08-05T02:10:42.818Z,5.30
2022-08-05T02:12:52.572Z,3.10
2022-08-05T02:15:05.510Z,5.83
2022-08-05T02:18:14.568Z,4.70
2022-08-05T02:19:47.656Z,3.83
2022-08-05T02:21:55.291Z,3.13
2022-08-05T02:24:03.016Z,3.57
2022-08-05T02:26:11.759Z,3.00
2022-08-05T02:28:16.023Z,2.93
2022-08-05T02:30:38.608Z,4.40
2022-08-05T02:33:00.355Z,3.90
2022-08-05T02:35:13.333Z,5.27
2022-08-05T02:37:18.412Z,4.90
2022-08-05T02:39:25.981Z,6.50
2022-08-05T02:41:36.355Z,3.10
2022-08-05T02:44:02.478Z,3.83
2022-08-05T02:46:16.831Z,3.40
2022-08-05T02:48:31.445Z,5.27
2022-08-05T02:50:36.068Z,3.93
2022-08-05T02:52:39.720Z,5.13
2022-08-05T02:54:50.752Z,3.03
2022-08-05T02:56:56.134Z,3.00
2022-08-05T02:59:00.790Z,3.30
2022-08-05T03:01:04.559Z,3.23
2022-08-05T03:03:10.535Z,3.13
2022-08-05T03:05:14.834Z,3.17
2022-08-05T03:07:24.722Z,3.07
2022-08-05T03:09:51.617Z,4.63
2022-08-05T03:11:58.014Z,4.00
2022-08-05T03:14:03.383Z,4.57
2022-08-05T03:16:07.657Z,2.93
2022-08-05T03:18:13.765Z,3.27
2022-08-05T03:20:20.268Z,3.23
2022-08-05T03:22:31.871Z,5.50
2022-08-05T03:24:35.513Z,3.00
2022-08-05T03:26:38.612Z,2.80
2022-08-05T03:28:41.422Z,4.03
2022-08-05T03:30:45.690Z,5.40
2022-08-05T03:32:50.437Z,3.40
2022-08-05T03:34:55.447Z,6.20
2022-08-05T03:36:58.263Z,3.17
2022-08-05T03:39:07.718Z,5.57
2022-08-05T03:41:11.096Z,4.73
2022-08-05T03:43:15.890Z,5.37
2022-08-05T03:45:57.403Z,3.20
2022-08-05T03:48:00.122Z,4.53
2022-08-05T03:50:04.648Z,2.97
2022-08-05T03:52:48.515Z,3.83
2022-08-05T03:56:01.098Z,3.40
2022-08-05T03:57:16.751Z,4.03
2022-08-05T03:59:24.780Z,7.77
2022-08-05T04:01:32.287Z,4.13
2022-08-05T04:03:38.094Z,3.93
2022-08-05T04:05:44.532Z,7.13
2022-08-05T04:07:58.004Z,3.27
2022-08-05T04:10:03.167Z,5.20
2022-08-05T04:12:23.587Z,5.40
2022-08-05T04:14:29.836Z,5.87
2022-08-05T04:16:35.382Z,5.87
2022-08-05T04:18:39.610Z,3.80
2022-08-05T04:20:44.057Z,3.40
2022-08-05T04:22:47.764Z,3.67
2022-08-05T04:24:52.616Z,3.90
2022-08-05T04:26:55.613Z,3.30
2022-08-05T04:29:07.106Z,4.07
2022-08-05T04:31:10.579Z,4.90
2022-08-05T04:33:14.027Z,4.30
2022-08-05T04:35:19.690Z,3.60
2022-08-05T04:38:01.429Z,4.37
2022-08-05T04:39:46.927Z,7.03
2022-08-05T04:41:55.997Z,5.03
2022-08-05T04:43:58.872Z,6.37
2022-08-05T04:46:04.062Z,3.50
2022-08-05T04:48:10.256Z,4.67
2022-08-05T04:50:34.469Z,6.63
2022-08-05T04:52:41.834Z,6.87
2022-08-05T04:54:49.466Z,5.83
2022-08-05T04:56:55.266Z,6.53
2022-08-05T04:59:00.252Z,6.03
2022-08-05T05:02:06.057Z,3.93
2022-08-05T05:03:45.913Z,6.53
2022-08-05T05:06:40.326Z,4.80
2022-08-05T05:08:26.558Z,3.43
2022-08-05T05:10:35.169Z,3.60
2022-08-05T05:12:37.950Z,3.93
2022-08-05T05:14:49.533Z,8.30
2022-08-05T05:16:54.568Z,7.80
2022-08-05T05:19:18.577Z,4.47
2022-08-05T05:21:20.257Z,4.03
2022-08-05T05:23:24.402Z,3.87
2022-08-05T05:25:32.776Z,8.23
2022-08-05T05:27:45.547Z,3.80
2022-08-05T05:30:04.416Z,5.43
2022-08-05T05:32:12.732Z,5.80
2022-08-05T05:34:26.602Z,6.50
2022-08-05T05:36:30.316Z,5.63
2022-08-05T05:38:35.708Z,6.73
2022-08-05T05:40:39.298Z,7.07
2022-08-05T05:42:47.015Z,7.07
2022-08-05T05:44:50.121Z,5.73
2022-08-05T05:46:52.937Z,5.63
2022-08-05T05:48:56.075Z,5.60
2022-08-05T05:50:58.872Z,6.07
2022-08-05T05:53:22.138Z,3.40
2022-08-05T05:55:52.429Z,4.87
2022-08-05T05:57:52.626Z,7.30
2022-08-05T05:59:56.044Z,4.80
2022-08-05T06:01:59.822Z,6.07
2022-08-05T06:04:03.879Z,4.57
2022-08-05T06:06:07.346Z,9.30
2022-08-05T06:08:10.540Z,5.97
2022-08-05T06:10:14.514Z,5.77
2022-08-05T06:12:20.047Z,7.57
2022-08-05T06:14:22.896Z,4.70
2022-08-05T06:16:32.715Z,5.27
2022-08-05T06:18:39.869Z,4.53
2022-08-05T06:20:42.648Z,3.37
2022-08-05T06:22:51.231Z,3.93
2022-08-05T06:24:54.315Z,5.50
2022-08-05T06:26:58.481Z,5.80
2022-08-05T06:29:03.670Z,4.17
2022-08-05T06:31:11.184Z,4.27
2022-08-05T06:33:21.413Z,3.73
2022-08-05T06:36:06.807Z,3.57
2022-08-05T06:38:11.339Z,3.87
2022-08-05T06:40:20.731Z,3.90
2022-08-05T06:42:24.164Z,4.80
2022-08-05T06:44:30.139Z,5.47
2022-08-05T06:46:33.343Z,2.80
2022-08-05T06:48:55.273Z,4.07
2022-08-05T06:51:00.420Z,3.80
2022-08-05T06:53:03.768Z,2.43
2022-08-05T06:55:14.597Z,2.87
2022-08-05T06:57:58.140Z,3.63
2022-08-05T06:59:42.540Z,5.30
2022-08-05T07:01:59.241Z,3.03
2022-08-05T07:04:03.159Z,3.87
2022-08-05T07:06:14.184Z,3.97
2022-08-05T07:08:18.078Z,5.30
2022-08-05T07:10:21.909Z,2.60
2022-08-05T07:12:53.694Z,3.27
2022-08-05T07:15:34.208Z,3.07
2022-08-05T07:18:01.237Z,3.17
2022-08-05T07:20:32.039Z,2.17
2022-08-05T07:22:29.151Z,2.23
2022-08-05T07:24:35.052Z,2.33
2022-08-05T07:26:47.340Z,2.33
2022-08-05T07:28:51.456Z,1.90
2022-08-05T07:30:55.610Z,2.30
2022-08-05T07:32:58.621Z,2.00
2022-08-05T07:35:01.450Z,2.63
2022-08-05T07:37:24.458Z,2.40
2022-08-05T07:40:04.191Z,2.83
2022-08-05T07:42:13.932Z,3.33
2022-08-05T07:44:19.039Z,1.80
2022-08-05T07:46:25.137Z,1.77
2022-08-05T07:49:01.878Z,2.17
2022-08-05T07:50:51.563Z,2.00
2022-08-05T07:52:54.442Z,2.97
2022-08-05T07:54:57.562Z,1.93
2022-08-05T07:57:22.860Z,2.53
2022-08-05T07:59:38.908Z,3.67
2022-08-05T08:01:52.128Z,2.20
2022-08-05T08:04:00.333Z,2.03
2022-08-05T08:06:04.612Z,2.17
2022-08-05T08:08:12.253Z,4.10
2022-08-05T08:10:15.461Z,1.80
2022-08-05T08:12:37.350Z,2.73
2022-08-05T08:14:42.695Z,2.07
2022-08-05T08:16:53.639Z,1.83
2022-08-05T08:18:56.719Z,2.10
2022-08-05T08:21:03.833Z,1.87
2022-08-05T08:23:07.522Z,3.27
2022-08-05T08:26:00.108Z,2.20
2022-08-05T08:27:54.091Z,2.30
2022-08-05T08:30:05.066Z,2.37
2022-08-05T08:32:27.897Z,5.10
2022-08-05T08:34:33.259Z,3.10
2022-08-05T08:36:47.611Z,2.00
2022-08-05T08:38:56.115Z,3.10
2022-08-05T08:41:01.524Z,2.30
2022-08-05T08:44:56.416Z,6.67
2022-08-05T08:45:29.944Z,4.00
2022-08-05T08:48:05.481Z,12.20
2022-08-05T08:50:13.032Z,3.40
2022-08-05T08:52:26.524Z,6.27
2022-08-05T08:54:29.683Z,3.00
2022-08-05T08:56:33.326Z,2.20
2022-08-05T08:58:44.672Z,2.33
2022-08-05T09:00:51.520Z,4.27
2022-08-05T09:02:56.619Z,3.73
2022-08-05T09:05:17.917Z,3.23
2022-08-05T09:07:28.779Z,3.00
2022-08-05T09:09:35.474Z,3.50
2022-08-05T09:11:52.649Z,6.80
2022-08-05T09:14:09.264Z,2.80
2022-08-05T09:16:21.328Z,3.67
2022-08-05T09:18:31.435Z,3.30
2022-08-05T09:20:36.327Z,2.90
2022-08-05T09:23:07.778Z,3.70
2022-08-05T09:25:13.869Z,4.13
2022-08-05T09:28:04.480Z,2.10
2022-08-05T09:30:02.255Z,2.50
2022-08-05T09:32:43.021Z,2.60
2022-08-05T09:34:49.301Z,2.17
2022-08-05T09:36:54.944Z,3.90
2022-08-05T09:39:01.326Z,4.70
2022-08-05T09:41:07.269Z,4.43
2022-08-05T09:43:28.045Z,3.00
2022-08-05T09:46:07.604Z,2.20
2022-08-05T09:48:21.060Z,2.40
2022-08-05T09:50:38.814Z,3.50
2022-08-05T09:52:48.418Z,3.47
2022-08-05T09:54:58.775Z,3.50
2022-08-05T09:57:02.037Z,3.67
2022-08-05T09:59:07.049Z,2.40
2022-08-05T10:01:15.613Z,2.97
2022-08-05T10:03:51.825Z,2.73
2022-08-05T10:06:15.682Z,2.27
2022-08-05T10:08:37.769Z,2.37
2022-08-05T10:10:54.552Z,2.77
2022-08-05T10:13:00.152Z,4.97
2022-08-05T10:15:20.854Z,3.00
2022-08-05T10:17:37.366Z,2.40
2022-08-05T10:20:03.796Z,3.27
2022-08-05T10:22:09.106Z,2.50
2022-08-05T10:24:19.761Z,2.50
2022-08-05T10:26:32.619Z,1.83
2022-08-05T10:28:50.897Z,2.07
2022-08-05T10:32:47.817Z,2.30
2022-08-05T10:33:28.824Z,2.43
2022-08-05T10:35:33.782Z,2.10
2022-08-05T10:37:45.808Z,3.00
2022-08-05T10:40:03.116Z,2.47
2022-08-05T10:42:33.402Z,2.30
2022-08-05T10:44:39.170Z,1.97
2022-08-05T10:46:47.012Z,3.17
2022-08-05T10:49:02.699Z,2.90
2022-08-05T10:51:22.009Z,3.70
2022-08-05T10:53:54.911Z,2.93
2022-08-05T10:56:14.906Z,3.20
2022-08-05T10:58:36.015Z,2.53
2022-08-05T11:00:55.425Z,2.33
2022-08-05T11:03:23.251Z,3.33
2022-08-05T11:05:31.560Z,3.07
2022-08-05T11:08:02.605Z,4.17
2022-08-05T11:10:04.131Z,2.73
2022-08-05T11:12:45.351Z,3.13
2022-08-05T11:15:19.842Z,1.93
2022-08-05T11:17:57.171Z,2.67
2022-08-05T11:20:11.436Z,2.10
2022-08-05T11:22:42.764Z,2.33
2022-08-05T11:24:50.763Z,2.13
2022-08-05T11:27:50.886Z,2.83
2022-08-05T11:30:00.828Z,1.70
2022-08-05T11:32:26.371Z,2.60
2022-08-05T11:34:47.202Z,1.90
2022-08-05T11:36:55.047Z,2.67
2022-08-05T11:38:59.858Z,4.27
2022-08-05T11:41:34.314Z,4.83
2022-08-05T11:44:00.890Z,5.40
2022-08-05T11:46:27.191Z,2.13
2022-08-05T11:48:14.730Z,2.13
2022-08-05T11:50:17.827Z,2.40
2022-08-05T11:52:29.264Z,2.23
2022-08-05T11:54:34.989Z,2.63
2022-08-05T11:56:50.291Z,2.20
2022-08-05T11:58:56.304Z,3.13
2022-08-05T12:01:03.474Z,2.50
2022-08-05T12:03:29.650Z,2.60
2022-08-05T12:05:39.818Z,2.00
2022-08-05T12:08:07.814Z,4.17
2022-08-05T12:10:13.741Z,2.30
2022-08-05T12:12:23.258Z,3.13
2022-08-05T12:14:39.309Z,2.93
2022-08-05T12:16:48.285Z,2.20
2022-08-05T12:18:53.109Z,2.40
2022-08-05T12:20:56.798Z,3.67
2022-08-05T12:23:09.491Z,2.63
2022-08-05T12:25:14.206Z,4.17
2022-08-05T12:27:32.886Z,2.53
2022-08-05T12:29:39.079Z,2.40
2022-08-05T12:31:52.984Z,2.43
2022-08-05T12:33:57.344Z,2.57
2022-08-05T12:36:02.294Z,2.60
2022-08-05T12:38:07.347Z,2.80
2022-08-05T12:40:26.533Z,2.40
2022-08-05T12:42:32.059Z,2.63
2022-08-05T12:44:35.216Z,2.47
2022-08-05T12:46:39.230Z,3.17
2022-08-05T12:48:43.499Z,3.30
2022-08-05T12:51:21.838Z,2.40
2022-08-05T12:53:37.038Z,2.20
2022-08-05T12:55:42.360Z,3.13
2022-08-05T12:58:38.657Z,4.87
2022-08-05T13:02:02.844Z,3.20
2022-08-05T13:02:44.096Z,3.53
2022-08-05T13:04:56.337Z,3.83
2022-08-05T13:07:01.097Z,2.78
2022-08-05T13:09:08.745Z,2.92
2022-08-05T13:12:01.139Z,3.53
2022-08-05T13:14:06.133Z,3.72
2022-08-05T13:16:12.548Z,3.58
2022-08-05T13:18:19.741Z,2.50
2022-08-05T13:20:34.181Z,4.05
2022-08-05T13:22:39.076Z,3.35
2022-08-05T13:24:57.556Z,4.83
2022-08-05T13:27:01.193Z,2.67
2022-08-05T13:29:05.143Z,4.67
2022-08-05T13:31:11.158Z,3.90
2022-08-05T13:34:22.453Z,3.67
2022-08-05T13:35:47.531Z,2.53
2022-08-05T13:37:55.758Z,4.50
2022-08-05T13:40:16.699Z,3.90
2022-08-05T13:42:22.532Z,2.53
2022-08-05T13:44:27.990Z,2.83
2022-08-05T13:46:50.941Z,5.07
2022-08-05T13:48:57.716Z,4.23
2022-08-05T13:51:08.461Z,4.10
2022-08-05T13:53:15.737Z,3.10
2022-08-05T13:55:41.864Z,2.83
2022-08-05T13:57:48.531Z,2.43
2022-08-05T13:59:55.424Z,3.10
2022-08-05T14:02:01.335Z,3.23
2022-08-05T14:04:22.349Z,4.27
2022-08-05T14:06:30.899Z,5.57
2022-08-05T14:08:33.745Z,2.73
2022-08-05T14:10:38.785Z,5.03
2022-08-05T14:12:48.630Z,4.17
2022-08-05T14:14:52.165Z,4.00
2022-08-05T14:16:55.373Z,6.77
2022-08-05T14:19:04.483Z,2.40
2022-08-05T14:22:07.517Z,3.37
2022-08-05T14:23:36.353Z,3.73
2022-08-05T14:25:44.957Z,9.63
2022-08-05T14:27:49.373Z,4.73
2022-08-05T14:29:52.227Z,9.93
2022-08-05T14:32:13.025Z,34.73
2022-08-05T14:34:17.880Z,23.63
2022-08-05T14:36:26.560Z,12.73
2022-08-05T14:38:34.061Z,9.07
2022-08-05T14:40:38.903Z,11.70
2022-08-05T14:42:42.361Z,4.40
2022-08-05T14:44:45.818Z,4.57
2022-08-05T14:46:48.585Z,4.90
2022-08-05T14:48:51.710Z,4.80
2022-08-05T14:50:55.810Z,4.17
2022-08-05T14:53:00.229Z,5.90
2022-08-05T14:55:06.386Z,3.23
2022-08-05T14:57:13.464Z,4.23
2022-08-05T14:59:16.850Z,2.77
2022-08-05T15:01:24.179Z,2.90
2022-08-05T15:03:42.379Z,3.13
2022-08-05T15:06:07.049Z,3.83
2022-08-05T15:08:17.930Z,2.93
2022-08-05T15:10:34.923Z,2.83
2022-08-05T15:12:58.017Z,2.87
2022-08-05T15:15:00.673Z,5.40
2022-08-05T15:17:04.842Z,3.50
2022-08-05T15:19:07.727Z,6.27
2022-08-05T15:21:26.069Z,4.83
2022-08-05T15:23:33.259Z,3.50
2022-08-05T15:25:51.637Z,4.80
2022-08-05T15:27:56.656Z,3.77
2022-08-05T15:29:59.469Z,3.10
2022-08-05T15:32:03.285Z,3.53
2022-08-05T15:34:31.952Z,3.33
2022-08-05T15:36:29.634Z,3.57
2022-08-05T15:38:40.840Z,2.60
2022-08-05T15:41:03.466Z,4.20
2022-08-05T15:43:19.758Z,3.60
2022-08-05T15:45:38.896Z,4.87
2022-08-05T15:47:43.703Z,4.77
2022-08-05T15:49:56.605Z,3.83
2022-08-05T15:52:13.444Z,3.77
2022-08-05T15:54:19.305Z,4.50
2022-08-05T15:56:23.842Z,3.97
2022-08-05T15:58:28.652Z,3.67
2022-08-05T16:00:50.920Z,3.50
2022-08-05T16:02:54.594Z,3.37
2022-08-05T16:04:57.767Z,4.67
2022-08-05T16:07:00.605Z,3.17
2022-08-05T16:09:04.155Z,3.57
2022-08-05T16:11:07.323Z,3.70
2022-08-05T16:13:12.349Z,5.53
2022-08-05T16:15:22.559Z,4.67
2022-08-05T16:17:25.612Z,4.87
2022-08-05T16:20:03.062Z,3.87
2022-08-05T16:22:00.360Z,4.40
2022-08-05T16:24:04.361Z,3.80
2022-08-05T16:26:12.006Z,3.93
2022-08-05T16:28:17.938Z,6.70
2022-08-05T16:30:26.038Z,5.00
2022-08-05T16:32:29.921Z,4.10
2022-08-05T16:34:33.043Z,3.90
2022-08-05T16:36:36.304Z,4.30
2022-08-05T16:38:54.704Z,4.07
2022-08-05T16:41:01.427Z,4.27
2022-08-05T16:43:04.494Z,4.43
2022-08-05T16:46:04.153Z,4.97
2022-08-05T16:47:40.839Z,4.00
2022-08-05T16:49:56.650Z,3.83
2022-08-05T16:51:59.471Z,3.77
2022-08-05T16:54:16.119Z,4.77
2022-08-05T16:56:21.888Z,4.00
2022-08-05T16:58:26.153Z,3.97
2022-08-05T17:00:34.471Z,4.10
2022-08-05T17:02:38.016Z,4.53
2022-08-05T17:04:40.840Z,5.27
2022-08-05T17:06:43.759Z,4.20
2022-08-05T17:08:56.030Z,4.27
2022-08-05T17:11:00.449Z,3.60
2022-08-05T17:13:03.558Z,3.80
2022-08-05T17:15:07.598Z,4.90
2022-08-05T17:17:14.811Z,4.97
2022-08-05T17:19:18.232Z,4.13
2022-08-05T17:21:21.094Z,4.27
2022-08-05T17:24:03.113Z,4.53
2022-08-05T17:25:49.557Z,6.00
2022-08-05T17:27:54.641Z,4.10
2022-08-05T17:29:59.737Z,3.67
2022-08-05T17:32:03.641Z,4.53
2022-08-05T17:34:08.774Z,6.17
2022-08-05T17:36:32.799Z,5.63
2022-08-05T17:38:35.017Z,4.20
2022-08-05T17:40:38.352Z,4.17
2022-08-05T17:42:50.480Z,3.90
2022-08-05T17:44:54.430Z,3.83
2022-08-05T17:46:57.300Z,8.37
2022-08-05T17:49:00.282Z,5.03
2022-08-05T17:51:08.966Z,3.80
2022-08-05T17:53:12.154Z,4.43
2022-08-05T17:55:15.137Z,4.00
2022-08-05T17:57:18.520Z,3.60
2022-08-05T17:59:22.638Z,4.07
2022-08-05T18:01:26.439Z,4.07
2022-08-05T18:03:59.024Z,4.77
2022-08-05T18:06:01.960Z,3.70
2022-08-05T18:08:06.665Z,5.53
2022-08-05T18:10:20.363Z,4.83
2022-08-05T18:12:24.710Z,3.50
2022-08-05T18:14:27.830Z,5.63
2022-08-05T18:16:31.624Z,3.57
2022-08-05T18:18:39.612Z,6.27
2022-08-05T18:20:42.783Z,4.73
2022-08-05T18:22:54.765Z,4.10
2022-08-05T18:25:01.469Z,4.10
2022-08-05T18:27:04.368Z,5.40
2022-08-05T18:29:16.758Z,5.47
2022-08-05T18:31:19.977Z,6.30
2022-08-05T18:33:24.174Z,8.40
2022-08-05T18:35:49.479Z,6.53
2022-08-05T18:37:49.915Z,7.23
2022-08-05T18:41:50.740Z,5.87
2022-08-05T18:42:22.725Z,6.43
2022-08-05T18:44:35.133Z,6.57
2022-08-05T18:46:50.584Z,8.53
2022-08-05T18:48:53.647Z,8.37
2022-08-05T18:52:04.668Z,9.20
2022-08-05T18:53:43.105Z,6.97
2022-08-05T18:55:48.768Z,7.60
2022-08-05T18:57:54.017Z,8.63
2022-08-05T19:00:13.252Z,7.20
2022-08-05T19:02:28.210Z,7.17
2022-08-05T19:04:32.911Z,7.33
2022-08-05T19:06:44.611Z,7.67
2022-08-05T19:08:48.397Z,8.30
2022-08-05T19:10:51.914Z,8.60
2022-08-05T19:12:56.052Z,7.90
2022-08-05T19:15:00.722Z,9.83
2022-08-05T19:17:06.421Z,8.10
2022-08-05T19:19:10.661Z,8.53
2022-08-05T19:21:15.843Z,8.70
2022-08-05T19:24:04.397Z,7.63
2022-08-05T19:25:43.452Z,7.40
2022-08-05T19:27:46.656Z,7.87
2022-08-05T19:29:53.962Z,7.80
2022-08-05T19:31:59.281Z,10.57
2022-08-05T19:34:02.115Z,7.63
2022-08-05T19:36:06.140Z,9.30
2022-08-05T19:38:09.601Z,8.37
2022-08-05T19:40:12.754Z,10.13
2022-08-05T19:42:18.348Z,9.20
2022-08-05T19:44:45.141Z,8.73
2022-08-05T19:46:50.653Z,7.93
2022-08-05T19:48:53.414Z,8.97
2022-08-05T19:50:56.950Z,10.07
2022-08-05T19:53:09.332Z,9.23
2022-08-05T19:56:15.203Z,9.17
2022-08-05T19:57:49.145Z,8.57
2022-08-05T20:00:02.504Z,10.67
2022-08-05T20:02:17.623Z,9.90
2022-08-05T20:04:20.657Z,8.93
2022-08-05T20:06:29.025Z,9.23
2022-08-05T20:08:32.331Z,9.63
2022-08-05T20:10:35.747Z,10.50
2022-08-05T20:12:39.728Z,8.67
2022-08-05T20:14:52.518Z,13.33
2022-08-05T20:16:58.451Z,11.43
2022-08-05T20:19:03.049Z,8.87
2022-08-05T20:21:07.231Z,9.10
2022-08-05T20:23:10.040Z,8.40
2022-08-05T20:25:15.257Z,9.63
2022-08-05T20:27:18.669Z,9.50
2022-08-05T20:29:27.292Z,9.53
2022-08-05T20:31:43.112Z,9.67
2022-08-05T20:33:54.212Z,9.80
2022-08-05T20:35:58.415Z,9.63
2022-08-05T20:38:07.648Z,9.30
2022-08-05T20:40:12.535Z,9.73
2022-08-05T20:42:15.707Z,10.03
2022-08-05T20:44:29.922Z,9.00
2022-08-05T20:46:33.683Z,9.47
2022-08-05T20:48:36.919Z,8.87
2022-08-05T20:50:42.568Z,9.97
2022-08-05T20:52:49.709Z,9.70
2022-08-05T20:55:15.828Z,9.43
2022-08-05T20:57:24.728Z,10.37
2022-08-05T21:00:10.549Z,10.33
2022-08-05T21:02:03.951Z,10.33
2022-08-05T21:04:07.202Z,10.83
2022-08-05T21:06:27.673Z,10.70
2022-08-05T21:08:41.780Z,11.07
2022-08-05T21:10:48.539Z,10.70
2022-08-05T21:13:09.006Z,10.43
2022-08-05T21:15:15.174Z,11.77
2022-08-05T21:17:17.978Z,10.47
2022-08-05T21:19:24.257Z,11.03
2022-08-05T21:21:27.050Z,9.30
2022-08-05T21:23:47.810Z,9.67
2022-08-05T21:25:51.613Z,10.47
2022-08-05T21:27:58.178Z,9.70
2022-08-05T21:30:01.768Z,9.20
2022-08-05T21:32:05.515Z,9.77
2022-08-05T21:34:08.333Z,10.43
2022-08-05T21:36:13.548Z,8.90
2022-08-05T21:38:22.258Z,8.90
2022-08-05T21:40:26.906Z,8.93
2022-08-05T21:42:31.017Z,7.93
2022-08-05T21:44:47.244Z,7.60
2022-08-05T21:46:50.025Z,7.63
2022-08-05T21:48:56.749Z,8.03
2022-08-05T21:50:59.751Z,7.97
2022-08-05T21:53:04.518Z,8.13
2022-08-05T21:55:11.524Z,7.23
2022-08-05T21:57:33.275Z,6.97
2022-08-05T22:00:01.653Z,7.80
2022-08-05T22:01:59.323Z,7.27
2022-08-05T22:04:02.173Z,6.83
2022-08-05T22:06:06.244Z,6.80
2022-08-05T22:08:22.125Z,6.37
2022-08-05T22:10:27.480Z,5.87
2022-08-05T22:12:32.090Z,5.73
2022-08-05T22:14:37.960Z,5.63
2022-08-05T22:16:51.154Z,5.57
2022-08-05T22:18:58.720Z,5.07
2022-08-05T22:21:04.190Z,7.17
2022-08-05T22:24:02.953Z,4.40
2022-08-05T22:26:10.246Z,4.57
2022-08-05T22:28:15.766Z,4.53
2022-08-05T22:30:21.117Z,4.17
2022-08-05T22:32:24.401Z,4.83
2022-08-05T22:34:30.135Z,4.20
2022-08-05T22:36:33.040Z,4.43
2022-08-05T22:38:35.903Z,5.13
2022-08-05T22:40:40.415Z,3.97
2022-08-05T22:42:53.028Z,3.77
2022-08-05T22:45:02.005Z,4.10
2022-08-05T22:47:06.570Z,3.80
2022-08-05T22:49:12.345Z,3.77
2022-08-05T22:52:06.060Z,3.43
2022-08-05T22:53:56.217Z,5.20
2022-08-05T22:55:59.291Z,6.07
2022-08-05T22:58:02.190Z,3.37
2022-08-05T23:00:08.850Z,3.00
2022-08-05T23:02:13.616Z,3.00
2022-08-05T23:04:19.786Z,2.87
2022-08-05T23:06:22.617Z,3.03
2022-08-05T23:08:29.304Z,3.37
2022-08-05T23:10:32.455Z,2.70
2022-08-05T23:12:35.228Z,4.37
2022-08-05T23:14:39.629Z,2.67
2022-08-05T23:17:05.385Z,2.93
2022-08-05T23:19:08.583Z,2.50
2022-08-05T23:21:11.612Z,2.40
2022-08-05T23:23:19.323Z,2.50
2022-08-05T23:25:53.156Z,5.27
2022-08-05T23:28:00.443Z,2.57
2022-08-05T23:30:04.311Z,2.13
2022-08-05T23:32:12.772Z,2.70
2022-08-05T23:34:24.749Z,2.00
2022-08-05T23:36:28.485Z,3.30
2022-08-05T23:38:42.838Z,3.47
2022-08-05T23:40:49.511Z,2.23
2022-08-05T23:42:53.936Z,2.17
2022-08-05T23:44:57.077Z,2.47
2022-08-05T23:47:02.499Z,2.00
2022-08-05T23:49:23.660Z,3.03
2022-08-05T23:51:28.226Z,3.10
2022-08-05T23:53:46.422Z,2.57
2022-08-05T23:55:49.887Z,2.60
2022-08-05T23:57:53.361Z,3.27
